Barbarossa — ZDFA4 — position and weather

sailwx.info

Track history (hours):
 
Tides and Currents Weather Stations Pressure Air Temp Water Temp Dewpoint Dewpoint Depression Visibility Wind Speed Wind Dir Waves Ship Positions

Barbarossa

Last reported at 2017-Feb-19 21:20 UTC. Time now 2017-Feb-22 10:59 UTC.
Position N 36°17' W 004°58'.

Length 83 m; draft 4.2 m.

Type: Cargo ship. MMSI: 236029000.

Date/timePositionNaut miles runAvg speedWind from/ knotsBaromVisibWave heightAir tempDewpointWater temp
2017-Feb-19 21:20N 36°17' W 004°58'4 5.3
2017-Feb-19 20:32N 36°14' W 005°02'4 4.5
2017-Feb-19 19:33N 36°12' W 005°07'5 4.7
2017-Feb-19 18:33N 36°09' W 005°11'5 4.6
2017-Feb-19 17:33N 36°06' W 005°16'4 4.2
2017-Feb-19 16:33N 36°05' W 005°21'4 4.1
2017-Feb-19 15:33N 36°09' W 005°22'0 0.1
2017-Feb-19 14:28N 36°09' W 005°22'0 0.0
2017-Feb-19 13:33N 36°09' W 005°22'0 0.0
2017-Feb-19 12:33N 36°09' W 005°22'0 0.0
2017-Feb-19 11:34N 36°09' W 005°22'1 1.5
2017-Feb-19 10:34N 36°08' W 005°23'4 3.8
2017-Feb-19 09:33N 36°04' W 005°21'7 6.7
2017-Feb-19 08:33N 35°58' W 005°25'1111.2
2017-Feb-19 07:33N 35°55' W 005°39'230 9.8
2017-Feb-18 08:11N 37°48' W 009°49'811.2
2017-Feb-18 07:30N 37°55' W 009°52'1111.1
2017-Feb-18 06:32N 38°05' W 009°55'1111.3
2017-Feb-18 05:32N 38°16' W 009°58'1111.1
2017-Feb-18 04:33N 38°27' W 010°01'1111.3
2017-Feb-18 03:33N 38°38' W 010°05'1111.2
2017-Feb-18 02:33N 38°49' W 010°05'1111.1
2017-Feb-18 01:33N 39°00' W 010°05'1311.6
2017-Feb-18 00:24N 39°14' W 010°06'1111.2
2017-Feb-17 23:27N 39°24' W 010°05'1011.3
2017-Feb-17 22:33N 39°35' W 010°05'1211.5
2017-Feb-17 21:32N 39°46' W 010°05'2511.3
2017-Feb-17 19:17N 40°12' W 010°05'911.2
2017-Feb-17 18:27N 40°21' W 010°05'1011.2
2017-Feb-17 17:32N 40°31' W 010°05'260 8.3
2017-Feb-16 10:11N 43°47' W 006°13'711.1
2017-Feb-16 09:33N 43°46' W 006°03'1110.8
2017-Feb-16 08:33N 43°45' W 005°48'1110.7
2017-Feb-16 07:33N 43°44' W 005°34'1110.7
2017-Feb-16 06:32N 43°42' W 005°19'1110.8
2017-Feb-16 05:33N 43°41' W 005°04'211 4.7
2017-Feb-14 09:08N 47°12' W 005°06'1010.6
2017-Feb-14 08:14N 47°21' W 005°11'710.9
2017-Feb-14 07:33N 47°27' W 005°15'1110.8
2017-Feb-14 06:34N 47°38' W 005°21'156 7.4
2017-Feb-13 09:33N 49°51' W 003°20'8 8.6
2017-Feb-13 08:33N 49°56' W 003°09'8 8.3
2017-Feb-13 07:33N 49°60' W 002°57'9 8.9
2017-Feb-13 06:33N 50°03' W 002°44'9910.9
2017-Feb-12 21:28N 50°30' W 000°15'8 8.8
2017-Feb-12 20:33N 50°32' W 000°02'10 9.9
2017-Feb-12 19:30N 50°35' E 000°13'1111.6
2017-Feb-12 18:33N 50°38' E 000°30'1211.9
2017-Feb-12 17:33N 50°44' E 000°46'2610.9
2017-Feb-12 15:11N 50°60' E 001°19'5 8.6
2017-Feb-12 14:33N 51°03' E 001°25'7 7.3
2017-Feb-12 13:33N 51°08' E 001°34'7 7.2
2017-Feb-12 12:33N 51°12' E 001°43'9 8.7
2017-Feb-12 11:33N 51°20' E 001°49'1010.5
2017-Feb-12 10:33N 51°31' E 001°50'1111.5
2017-Feb-12 09:33N 51°42' E 001°45'1212.3
2017-Feb-12 08:33N 51°54' E 001°44'1212.1
2017-Feb-12 07:33N 52°06' E 001°47'38 8.6
2017-Feb-12 03:04N 52°44' E 001°54'4 6.3
2017-Feb-12 02:29N 52°47' E 001°50'6 6.7
2017-Feb-12 01:33N 52°50' E 001°41'7 7.4
2017-Feb-12 00:33N 52°54' E 001°31'7 7.1
2017-Feb-11 23:33N 52°58' E 001°21'8 7.6
2017-Feb-11 22:33N 53°01' E 001°10'7310.4
2017-Feb-11 15:33N 54°06' E 000°15'1111.4
2017-Feb-11 14:33N 54°17' E 000°09'1110.8
2017-Feb-11 13:33N 54°28' E 000°05'1010.1
2017-Feb-11 12:33N 54°37' W 000°01'10 9.6
2017-Feb-11 11:33N 54°47' W 000°05'168 9.9
2017-Feb-10 18:33N 57°27' W 001°34'8 8.4
2017-Feb-10 17:33N 57°35' W 001°40'8 7.6
2017-Feb-10 16:33N 57°41' W 001°48'9 8.7
2017-Feb-10 15:28N 57°49' W 001°58'5310.9
2017-Feb-10 10:33N 58°34' W 002°51'1413.9
2017-Feb-10 09:33N 58°43' W 003°13'1313.5
2017-Feb-10 08:33N 58°42' W 003°39'1212.3
2017-Feb-10 07:34N 58°42' W 004°03'  
Track history (hours):
 
Tides and Currents Weather Stations Pressure Air Temp Water Temp Dewpoint Dewpoint Depression Visibility Wind Speed Wind Dir Waves Ship Positions

Barbarossa

Last reported at 2017-Feb-19 21:20 UTC. Time now 2017-Feb-22 10:59 UTC.
Position N 36°17' W 004°58'.

Length 83 m; draft 4.2 m.

Type: Cargo ship. MMSI: 236029000.

Date/timePositionNaut miles runAvg speedWind from/ knotsBaromVisibWave heightAir tempDewpointWater temp
2017-Feb-19 21:20N 36°17' W 004°58'4 5.3
2017-Feb-19 20:32N 36°14' W 005°02'4 4.5
2017-Feb-19 19:33N 36°12' W 005°07'5 4.7
2017-Feb-19 18:33N 36°09' W 005°11'5 4.6
2017-Feb-19 17:33N 36°06' W 005°16'4 4.2
2017-Feb-19 16:33N 36°05' W 005°21'4 4.1
2017-Feb-19 15:33N 36°09' W 005°22'0 0.1
2017-Feb-19 14:28N 36°09' W 005°22'0 0.0
2017-Feb-19 13:33N 36°09' W 005°22'0 0.0
2017-Feb-19 12:33N 36°09' W 005°22'0 0.0
2017-Feb-19 11:34N 36°09' W 005°22'1 1.5
2017-Feb-19 10:34N 36°08' W 005°23'4 3.8
2017-Feb-19 09:33N 36°04' W 005°21'7 6.7
2017-Feb-19 08:33N 35°58' W 005°25'1111.2
2017-Feb-19 07:33N 35°55' W 005°39'230 9.8
2017-Feb-18 08:11N 37°48' W 009°49'811.2
2017-Feb-18 07:30N 37°55' W 009°52'1111.1
2017-Feb-18 06:32N 38°05' W 009°55'1111.3
2017-Feb-18 05:32N 38°16' W 009°58'1111.1
2017-Feb-18 04:33N 38°27' W 010°01'1111.3
2017-Feb-18 03:33N 38°38' W 010°05'1111.2
2017-Feb-18 02:33N 38°49' W 010°05'1111.1
2017-Feb-18 01:33N 39°00' W 010°05'1311.6
2017-Feb-18 00:24N 39°14' W 010°06'1111.2
2017-Feb-17 23:27N 39°24' W 010°05'1011.3
2017-Feb-17 22:33N 39°35' W 010°05'1211.5
2017-Feb-17 21:32N 39°46' W 010°05'2511.3
2017-Feb-17 19:17N 40°12' W 010°05'911.2
2017-Feb-17 18:27N 40°21' W 010°05'1011.2
2017-Feb-17 17:32N 40°31' W 010°05'260 8.3
2017-Feb-16 10:11N 43°47' W 006°13'711.1
2017-Feb-16 09:33N 43°46' W 006°03'1110.8
2017-Feb-16 08:33N 43°45' W 005°48'1110.7
2017-Feb-16 07:33N 43°44' W 005°34'1110.7
2017-Feb-16 06:32N 43°42' W 005°19'1110.8
2017-Feb-16 05:33N 43°41' W 005°04'211 4.7
2017-Feb-14 09:08N 47°12' W 005°06'1010.6
2017-Feb-14 08:14N 47°21' W 005°11'710.9
2017-Feb-14 07:33N 47°27' W 005°15'1110.8
2017-Feb-14 06:34N 47°38' W 005°21'156 7.4
2017-Feb-13 09:33N 49°51' W 003°20'8 8.6
2017-Feb-13 08:33N 49°56' W 003°09'8 8.3
2017-Feb-13 07:33N 49°60' W 002°57'9 8.9
2017-Feb-13 06:33N 50°03' W 002°44'9910.9
2017-Feb-12 21:28N 50°30' W 000°15'8 8.8
2017-Feb-12 20:33N 50°32' W 000°02'10 9.9
2017-Feb-12 19:30N 50°35' E 000°13'1111.6
2017-Feb-12 18:33N 50°38' E 000°30'1211.9
2017-Feb-12 17:33N 50°44' E 000°46'2610.9
2017-Feb-12 15:11N 50°60' E 001°19'5 8.6
2017-Feb-12 14:33N 51°03' E 001°25'7 7.3
2017-Feb-12 13:33N 51°08' E 001°34'7 7.2
2017-Feb-12 12:33N 51°12' E 001°43'9 8.7
2017-Feb-12 11:33N 51°20' E 001°49'1010.5
2017-Feb-12 10:33N 51°31' E 001°50'1111.5
2017-Feb-12 09:33N 51°42' E 001°45'1212.3
2017-Feb-12 08:33N 51°54' E 001°44'1212.1
2017-Feb-12 07:33N 52°06' E 001°47'38 8.6
2017-Feb-12 03:04N 52°44' E 001°54'4 6.3
2017-Feb-12 02:29N 52°47' E 001°50'6 6.7
2017-Feb-12 01:33N 52°50' E 001°41'7 7.4
2017-Feb-12 00:33N 52°54' E 001°31'7 7.1
2017-Feb-11 23:33N 52°58' E 001°21'8 7.6
2017-Feb-11 22:33N 53°01' E 001°10'7310.4
2017-Feb-11 15:33N 54°06' E 000°15'1111.4
2017-Feb-11 14:33N 54°17' E 000°09'1110.8
2017-Feb-11 13:33N 54°28' E 000°05'1010.1
2017-Feb-11 12:33N 54°37' W 000°01'10 9.6
2017-Feb-11 11:33N 54°47' W 000°05'168 9.9
2017-Feb-10 18:33N 57°27' W 001°34'8 8.4
2017-Feb-10 17:33N 57°35' W 001°40'8 7.6
2017-Feb-10 16:33N 57°41' W 001°48'9 8.7
2017-Feb-10 15:28N 57°49' W 001°58'5310.9
2017-Feb-10 10:33N 58°34' W 002°51'1413.9
2017-Feb-10 09:33N 58°43' W 003°13'1313.5
2017-Feb-10 08:33N 58°42' W 003°39'1212.3
2017-Feb-10 07:34N 58°42' W 004°03'  

Dump ship's entire track history